チューク国際空港の過去48時間の天気

チューク国際空港 (Weno Island, Chuuk Int. Airp., Micronesia)

現在時刻: 9/28 18:43 +10 (9/28 08:43 UTC) 以下の時間は現地時間です。

過去48時間のMETAR気象情報
時間 風向 風速(m/s) 視程 気温(℃) 湿度(%) 気圧(hPa) 天気現象
28 17:51 静穏 0 10km以上 29.4 85 1007.9
28 16:52 不定 2 10km以上 30.6 80 1007.8
28 15:51 不定 2 10km以上 30.6 80 1007.2
28 14:51 不定 2 10km以上 31.7 77 1007.2
28 13:51 3 10km以上 31.1 78 1007.9
28 12:50 北東 5 10km以上 30.8 72 1008.4
28 11:50 3 10km以上 31.4 81 1009.3
28 10:50 3 10km以上 31.1 83 1010
28 09:51 3 10km以上 31.4 81 1010.5
28 08:55 3 10km以上 29.1 92 1011
28 07:50 3 10km以上 27.6 88 1010.8
28 06:50 不定 2 10km以上 27.2 88 1010.5
28 05:50 3 10km以上 24.8 87 1010
28 04:50 3 10km以上 24.8 82 1009.4
28 03:50 不定 1 10km以上 24.9 81 1009.6
28 02:50 静穏 0 10km以上 25 83 1009.8
28 01:51 不定 2 10km以上 25.1 84 1009.8
28 00:50 不定 2 10km以上 25.4 82 1010.1
27 23:51 静穏 0 10km以上 25.7 80 1010.6
27 22:50 静穏 0 10km以上 25.8 84 1011.3
27 21:50 不定 2 10km以上 25.8 87 1011.5
27 20:50 不定 2 10km以上 26.1 90 1011.1
27 19:50 不定 2 10km以上 26.7 85 1010.5
27 18:54 静穏 0 10km以上 26.9 86 1009.8
27 17:53 静穏 0 10km以上 28.3 84 1009.1
27 16:50 静穏 0 10km以上 30.8 72 1008.8
27 15:50 不定 2 10km以上 31.7 70 1008.3
27 14:50 不定 2 10km以上 31.9 73 1007.9
27 13:51 不定 2 10km以上 31.4 74 1008.6
27 12:51 静穏 0 10km以上 30.6 80 1009.3
27 11:52 不定 2 10km以上 31.1 88 1009.8
27 10:52 不定 2 10km以上 31.1 88 1010.6
27 09:52 不定 2 10km以上 31.1 88 1011.5
27 08:51 不定 2 10km以上 30.9 86 1011.6
27 07:51 不定 2 10km以上 30 91 1011.5
27 06:52 不定 2 10km以上 27.8 90 1011
27 05:52 不定 2 10km以上 25.6 93 1010.6
PTKK 280751Z 00000KT 15SM FEW014 SCT120 BKN280 29/27 A2976 RMK SLP079 T02940267
PTKK 280652Z VRB04KT 15SM FEW014 SCT120 BKN280 31/27 A2975 RMK SLP078 T03060268
PTKK 280551Z VRB04KT 15SM FEW014 SCT280 31/27 A2974 RMK SLP072 8/101 T03060268 10317 20306 56012
PTKK 280451Z VRB04KT 15SM FEW014 BKN280 32/27 A2974 RMK SLP072 T03170272
PTKK 280351Z VRB05KT 15SM FEW014 BKN280 31/27 A2976 RMK SLP079 T03110267
PTKK 280250Z 05009KT 15SM FEW017 BKN300 31/25 A2978 RMK SLP084 8/101 T03080252 57020
PTKK 280150Z VRB05KT 15SM FEW014 BKN290 31/28 A2980 RMK SLP093 T03140278
PTKK 280050Z VRB05KT 15SM FEW014 BKN290 31/28 A2982 RMK SLP100 T03110278
PTKK 272351Z VRB05KT 15SM FEW014 BKN290 31/28 A2983 RMK SLP105 8/101 T03140278 10314 20248 50000
PTKK 272255Z VRB05KT 15SM FEW014 BKN290 29/28 A2985 RMK SLP110 T02910276
PTKK 272150Z VRB05KT 15SM FEW014 BKN290 28/25 A2984 RMK SLP108 T02760254
PTKK 272050Z VRB04KT 15SM FEW014 BKN290 27/25 A2983 RMK SLP105 8/101 T02720250 52008
PTKK 271950Z VRB05KT 15SM FEW014 SCT290 25/22 A2982 RMK SLP100 T02480224
PTKK 271850Z VRB05KT 15SM FEW014 SCT290 25/22 A2981 RMK SLP094 T02480215
PTKK 271750Z VRB02KT 15SM FEW014 SCT290 25/22 A2981 RMK SLP096 8/101 T02490215 10258 20249 57005
PTKK 271650Z 00000KT 15SM FEW014 SCT290 25/22 A2981 RMK SLP098 T02500219
PTKK 271551Z VRB03KT 15SM FEW014 FEW290 25/22 A2981 RMK SLP098 T02510222
PTKK 271450Z VRB03KT 15SM FEW014 FEW290 25/22 A2982 RMK SLP101 8/101 T02540221 57014
PTKK 271351Z 00000KT 15SM FEW014 FEW290 26/22 A2984 RMK SLP106 T02570219
PTKK 271250Z 00000KT 15SM FEW014 FEW290 26/23 A2986 RMK SLP113 T02580228
PTKK 271150Z VRB03KT 15SM FEW014 FEW290 26/23 A2986 RMK SLP115 8/101 T02580234 10317 20258 52017
PTKK 271050Z VRB03KT 15SM FEW014 FEW290 26/24 A2985 RMK SLP111 T02610244
PTKK 270950Z VRB03KT 15SM SKC 27/24 A2983 RMK SLP105 T02670239
PTKK 270854Z 00000KT 15SM FEW014 SCT280 27/24 A2981 RMK SLP098 8/101 T02690243 52015
PTKK 270753Z 00000KT 15SM FEW014 SCT280 28/25 A2979 RMK SLP091 T02830253
PTKK 270650Z 00000KT 15SM FEW014 SCT280 31/25 A2978 RMK SLP088 T03080252
PTKK 270550Z VRB03KT 15SM FEW014 BKN280 32/26 A2977 RMK SLP083 8/101 T03170256 10319 20306 55010
PTKK 270450Z VRB03KT 15SM FEW014CB BKN280 32/26 A2976 RMK CB NW SLP079 T03190264
PTKK 270351Z VRB04KT 15SM SCT014CB SCT120 BKN280 31/26 A2978 RMK CB ALQDS SLP086 T03140262
PTKK 270251Z 00000KT 15SM FEW014CB BKN280 31/27 A2980 RMK CB NE AND OHD SLP093 8/301 T03060268 57022
PTKK 270152Z VRB03KT 15SM FEW014 BKN280 31/29 A2981 RMK SLP098 T03110289
PTKK 270052Z VRB04KT 15SM FEW014 BKN280 31/29 A2984 RMK SLP106 T03110289
PTKK 272352Z VRB03KT 15SM FEW014 SCT120 BKN280 31/29 A2986 RMK SLP115 8/171 T03110289 10311 20255 50005
PTKK 262251Z VRB03KT 15SM FEW014 SCT120 BKN280 31/28 A2987 RMK SLP116 T03090283
PTKK 262151Z VRB03KT 15SM FEW014 SCT120 BKN280 30/28 A2986 RMK SLP115 T03000283
PTKK 262052Z VRB03KT 15SM FEW014 SCT120 BKN280 28/26 A2985 RMK SLP110 8/171 T02780261 52010
PTKK 261952Z VRB03KT 15SM FEW014 BKN120 OVC280 26/24 A2984 RMK SLP106 T02560244